createdAt,value
2023-04-10T00:02:16.950Z,62.84
2023-04-10T00:04:49.861Z,62.66
2023-04-10T00:07:22.495Z,62.38
2023-04-10T00:09:55.191Z,62.23
2023-04-10T00:12:27.895Z,62.13
2023-04-10T00:15:00.442Z,62.18
2023-04-10T00:17:33.054Z,61.75
2023-04-10T00:20:06.772Z,62.05
2023-04-10T00:22:42.919Z,61.91
2023-04-10T00:25:15.730Z,61.84
2023-04-10T00:27:48.418Z,61.71
2023-04-10T00:30:21.594Z,61.42
2023-04-10T00:32:54.248Z,61.70
2023-04-10T00:35:26.914Z,61.63
2023-04-10T00:37:59.474Z,61.83
2023-04-10T00:40:32.095Z,61.73
2023-04-10T00:43:04.869Z,61.84
2023-04-10T00:45:40.788Z,61.67
2023-04-10T00:48:13.423Z,61.50
2023-04-10T00:50:47.436Z,61.70
2023-04-10T00:53:20.532Z,61.68
2023-04-10T00:55:54.195Z,62.06
2023-04-10T00:58:26.863Z,61.93
2023-04-10T01:00:59.479Z,62.30
2023-04-10T01:03:32.295Z,62.54
2023-04-10T01:06:23.822Z,62.67
2023-04-10T01:09:16.703Z,62.68
2023-04-10T01:11:59.796Z,61.87
2023-04-10T01:15:04.540Z,62.20
2023-04-10T01:17:56.209Z,62.42
2023-04-10T01:20:37.710Z,62.25
2023-04-10T01:23:31.690Z,63.00
2023-04-10T01:26:08.709Z,63.03
2023-04-10T01:28:57.060Z,62.29
2023-04-10T01:31:53.760Z,62.86
2023-04-10T01:34:35.368Z,62.91
2023-04-10T01:37:31.055Z,63.16
2023-04-10T01:40:08.284Z,63.55
2023-04-10T01:42:57.488Z,63.39
2023-04-10T01:45:30.080Z,63.65
2023-04-10T01:48:02.763Z,63.90
2023-04-10T01:50:36.288Z,64.09
2023-04-10T01:53:10.174Z,63.67
2023-04-10T01:55:43.710Z,64.15
2023-04-10T01:58:16.573Z,63.82
2023-04-10T02:00:49.304Z,64.43
2023-04-10T02:03:22.020Z,64.42
2023-04-10T02:06:50.455Z,63.45
2023-04-10T02:09:43.091Z,63.87
2023-04-10T02:12:39.042Z,64.02
2023-04-10T02:15:12.859Z,63.57
2023-04-10T02:17:47.023Z,63.44
2023-04-10T02:20:20.207Z,64.10
2023-04-10T02:22:54.167Z,63.73
2023-04-10T02:25:26.941Z,64.13
2023-04-10T02:28:07.912Z,63.23
2023-04-10T02:30:40.428Z,63.54
2023-04-10T02:33:12.964Z,63.79
2023-04-10T02:35:45.538Z,63.52
2023-04-10T02:38:18.146Z,63.59
2023-04-10T02:40:50.694Z,63.00
2023-04-10T02:43:23.365Z,62.65
2023-04-10T02:45:55.918Z,63.17
2023-04-10T02:48:28.653Z,63.13
2023-04-10T02:51:01.269Z,62.60
2023-04-10T02:53:34.316Z,62.44
2023-04-10T02:56:08.083Z,62.54
2023-04-10T02:58:45.409Z,62.67
2023-04-10T03:01:17.954Z,63.77
2023-04-10T03:03:50.681Z,63.43
2023-04-10T03:06:27.141Z,63.68
2023-04-10T03:08:59.828Z,63.08
2023-04-10T03:11:32.356Z,63.07
2023-04-10T03:14:05.350Z,63.78
2023-04-10T03:16:38.015Z,64.06
2023-04-10T03:19:12.602Z,64.45
2023-04-10T03:21:46.838Z,64.39
2023-04-10T03:24:19.351Z,64.20
2023-04-10T03:26:52.021Z,64.06
2023-04-10T03:29:24.674Z,64.85
2023-04-10T03:31:57.186Z,64.75
2023-04-10T03:34:30.242Z,64.49
2023-04-10T03:37:03.342Z,64.95
2023-04-10T03:39:37.248Z,64.29
2023-04-10T03:42:09.774Z,64.90
2023-04-10T03:44:42.328Z,64.17
2023-04-10T03:47:14.841Z,64.61
2023-04-10T03:49:47.482Z,64.97
2023-04-10T03:52:20.993Z,65.27
2023-04-10T03:54:54.662Z,64.91
2023-04-10T03:57:27.278Z,64.67
2023-04-10T03:59:59.873Z,65.05
2023-04-10T04:02:32.426Z,65.08
2023-04-10T04:05:05.607Z,64.91
2023-04-10T04:07:38.208Z,64.90
2023-04-10T04:10:11.047Z,65.41
2023-04-10T04:12:43.569Z,65.53
2023-04-10T04:15:16.464Z,65.33
2023-04-10T04:17:49.077Z,65.60
2023-04-10T04:20:21.714Z,65.61
2023-04-10T04:22:54.216Z,64.99
2023-04-10T04:25:27.188Z,65.34
2023-04-10T04:27:59.689Z,65.50
2023-04-10T04:30:32.462Z,65.26
2023-04-10T04:33:05.016Z,65.13
2023-04-10T04:35:37.665Z,65.45
2023-04-10T04:38:10.406Z,65.55
2023-04-10T04:40:43.258Z,65.61
2023-04-10T04:43:15.974Z,65.99
2023-04-10T04:45:48.534Z,65.83
2023-04-10T04:48:21.090Z,65.58
2023-04-10T04:50:53.607Z,65.27
2023-04-10T04:53:26.163Z,65.58
2023-04-10T04:55:58.805Z,65.68
2023-04-10T04:58:31.380Z,66.06
2023-04-10T05:01:04.205Z,66.02
2023-04-10T05:03:36.883Z,65.37
2023-04-10T05:06:09.540Z,65.30
2023-04-10T05:08:42.091Z,65.09
2023-04-10T05:11:14.707Z,65.94
2023-04-10T05:13:47.327Z,65.53
2023-04-10T05:16:19.997Z,66.08
2023-04-10T05:18:53.090Z,65.32
2023-04-10T05:21:26.054Z,66.18
2023-04-10T05:23:58.576Z,66.26
2023-04-10T05:26:31.128Z,65.24
2023-04-10T05:29:04.230Z,65.42
2023-04-10T05:31:36.884Z,64.91
2023-04-10T05:34:09.543Z,64.57
2023-04-10T05:36:42.115Z,63.78
2023-04-10T05:39:15.767Z,63.61
2023-04-10T05:41:48.288Z,63.13
2023-04-10T05:44:20.882Z,62.24
2023-04-10T05:46:53.548Z,62.11
2023-04-10T05:49:26.203Z,61.50
2023-04-10T05:51:58.735Z,60.74
2023-04-10T05:54:31.430Z,60.36
2023-04-10T05:57:04.150Z,59.85
2023-04-10T05:59:36.681Z,59.73
2023-04-10T06:02:09.290Z,59.48
2023-04-10T06:04:42.519Z,58.97
2023-04-10T06:07:15.228Z,58.79
2023-04-10T06:09:47.758Z,58.92
2023-04-10T06:12:20.589Z,58.45
2023-04-10T06:14:53.195Z,58.35
2023-04-10T06:17:25.966Z,57.69
2023-04-10T06:20:01.018Z,57.78
2023-04-10T06:22:33.524Z,57.56
2023-04-10T06:25:07.297Z,57.60
2023-04-10T06:27:40.745Z,57.19
2023-04-10T06:30:13.255Z,56.32
2023-04-10T06:32:46.152Z,56.17
2023-04-10T06:35:18.812Z,55.96
2023-04-10T06:37:51.320Z,56.15
2023-04-10T06:40:23.822Z,55.21
2023-04-10T06:42:56.957Z,54.99
2023-04-10T06:45:30.667Z,54.90
2023-04-10T06:48:03.343Z,54.41
2023-04-10T06:50:35.914Z,54.15
2023-04-10T06:53:08.472Z,54.02
2023-04-10T06:55:41.026Z,53.89
2023-04-10T06:58:13.506Z,53.44
2023-04-10T07:00:46.461Z,53.59
2023-04-10T07:03:19.006Z,52.60
2023-04-10T07:05:51.571Z,52.96
2023-04-10T07:08:24.286Z,52.64
2023-04-10T07:10:58.643Z,52.57
2023-04-10T07:13:31.567Z,52.52
2023-04-10T07:16:04.718Z,52.25
2023-04-10T07:18:38.573Z,52.04
2023-04-10T07:21:14.641Z,51.73
2023-04-10T07:23:47.390Z,52.11
2023-04-10T07:26:19.909Z,51.16
2023-04-10T07:28:53.111Z,51.25
2023-04-10T07:31:25.955Z,51.53
2023-04-10T07:33:58.507Z,51.35
2023-04-10T07:36:31.862Z,50.80
2023-04-10T07:39:04.477Z,51.47
2023-04-10T07:41:36.984Z,50.43
2023-04-10T07:44:09.600Z,50.47
2023-04-10T07:46:42.416Z,50.41
2023-04-10T07:49:14.962Z,50.30
2023-04-10T07:51:47.477Z,49.92
2023-04-10T07:54:19.983Z,50.13
2023-04-10T07:56:53.250Z,49.20
2023-04-10T07:59:28.514Z,49.20
2023-04-10T08:02:01.138Z,48.53
2023-04-10T08:04:34.185Z,47.66
2023-04-10T08:07:06.886Z,46.58
2023-04-10T08:09:39.384Z,46.74
2023-04-10T08:12:11.918Z,46.23
2023-04-10T08:14:45.220Z,46.42
2023-04-10T08:17:17.769Z,46.30
2023-04-10T08:19:50.372Z,46.54
2023-04-10T08:22:22.921Z,47.13
2023-04-10T08:24:55.590Z,46.10
2023-04-10T08:27:28.585Z,46.11
2023-04-10T08:30:01.172Z,46.35
2023-04-10T08:32:33.827Z,46.08
2023-04-10T08:35:06.890Z,46.17
2023-04-10T08:37:39.541Z,45.54
2023-04-10T08:40:12.393Z,45.08
2023-04-10T08:42:44.961Z,44.55
2023-04-10T08:45:17.529Z,45.25
2023-04-10T08:47:53.191Z,44.92
2023-04-10T08:50:26.438Z,44.47
2023-04-10T08:53:11.639Z,44.49
2023-04-10T08:55:45.933Z,44.66
2023-04-10T08:58:18.769Z,44.70
2023-04-10T09:00:51.597Z,44.93
2023-04-10T09:03:25.636Z,45.32
2023-04-10T09:06:06.542Z,44.86
2023-04-10T09:08:39.099Z,45.12
2023-04-10T09:11:13.141Z,44.94
2023-04-10T09:13:46.274Z,45.75
2023-04-10T09:16:30.466Z,45.17
2023-04-10T09:19:05.104Z,44.56
2023-04-10T09:21:39.158Z,44.23
2023-04-10T09:24:13.169Z,44.34
2023-04-10T09:26:45.682Z,43.70
2023-04-10T09:29:19.191Z,43.79
2023-04-10T09:31:52.060Z,43.75
2023-04-10T09:34:24.582Z,44.63
2023-04-10T09:37:01.240Z,44.59
2023-04-10T09:39:36.873Z,44.08
2023-04-10T09:42:11.507Z,44.23
2023-04-10T09:44:44.149Z,44.92
2023-04-10T09:47:21.359Z,44.91
2023-04-10T09:49:57.171Z,44.83
2023-04-10T09:52:32.242Z,44.52
2023-04-10T09:55:10.210Z,43.82
2023-04-10T09:57:44.967Z,43.65
2023-04-10T10:00:18.040Z,43.46
2023-04-10T10:02:52.522Z,42.41
2023-04-10T10:05:30.456Z,43.26
2023-04-10T10:08:03.092Z,43.15
2023-04-10T10:10:41.795Z,42.99
2023-04-10T10:13:28.181Z,42.13
2023-04-10T10:16:34.841Z,41.87
2023-04-10T10:19:22.087Z,41.44
2023-04-10T10:21:56.091Z,41.06
2023-04-10T10:24:33.323Z,42.04
2023-04-10T10:27:09.908Z,41.54
2023-04-10T10:29:45.871Z,41.53
2023-04-10T10:32:20.717Z,41.06
2023-04-10T10:34:54.275Z,40.12
2023-04-10T10:37:29.944Z,40.20
2023-04-10T10:40:16.637Z,41.13
2023-04-10T10:43:14.992Z,39.37
2023-04-10T10:46:17.766Z,39.01
2023-04-10T10:48:58.849Z,39.63
2023-04-10T10:51:50.601Z,39.72
2023-04-10T10:54:34.728Z,40.15
2023-04-10T10:57:46.794Z,40.02
2023-04-10T11:00:24.925Z,39.63
2023-04-10T11:03:10.675Z,39.23
2023-04-10T11:06:02.817Z,38.99
2023-04-10T11:08:49.608Z,38.80
2023-04-10T11:11:28.408Z,39.14
2023-04-10T11:14:01.108Z,39.27
2023-04-10T11:16:34.746Z,38.86
2023-04-10T11:22:10.598Z,37.70
2023-04-10T11:25:01.940Z,38.70
2023-04-10T11:27:47.820Z,37.73
2023-04-10T11:30:34.885Z,37.43
2023-04-10T11:33:07.709Z,37.84
2023-04-10T11:35:40.549Z,37.28
2023-04-10T11:38:16.986Z,37.36
2023-04-10T11:40:59.636Z,37.24
2023-04-10T11:43:33.829Z,37.28
2023-04-10T11:46:08.097Z,37.26
2023-04-10T11:48:41.070Z,36.79
2023-04-10T11:51:14.725Z,36.98
2023-04-10T11:53:47.306Z,36.75
2023-04-10T11:56:22.055Z,36.73
2023-04-10T11:58:55.309Z,37.04
2023-04-10T12:01:28.287Z,36.76
2023-04-10T12:04:01.869Z,36.71
2023-04-10T12:06:35.592Z,36.96
2023-04-10T12:09:20.230Z,37.12
2023-04-10T12:11:55.987Z,37.09
2023-04-10T12:14:41.800Z,36.63
2023-04-10T12:17:14.553Z,38.00
2023-04-10T12:19:47.229Z,38.55
2023-04-10T12:22:20.860Z,37.91
2023-04-10T12:24:53.713Z,37.88
2023-04-10T12:27:28.859Z,38.12
2023-04-10T12:30:08.600Z,38.29
2023-04-10T12:32:41.182Z,37.92
2023-04-10T12:35:13.803Z,38.04
2023-04-10T12:37:54.537Z,37.89
2023-04-10T12:40:27.644Z,37.95
2023-04-10T12:43:00.239Z,38.57
2023-04-10T12:45:45.529Z,38.36
2023-04-10T12:48:24.462Z,39.11
2023-04-10T12:50:57.180Z,39.03
2023-04-10T12:53:30.312Z,38.60
2023-04-10T12:56:06.527Z,38.86
2023-04-10T12:58:42.383Z,38.77
2023-04-10T13:01:15.037Z,38.59
2023-04-10T13:03:49.058Z,39.49
2023-04-10T13:06:21.790Z,39.89
2023-04-10T13:08:56.079Z,39.97
2023-04-10T13:11:28.827Z,40.01
2023-04-10T13:14:01.382Z,39.59
2023-04-10T13:16:34.738Z,39.25
2023-04-10T13:19:07.316Z,40.39
2023-04-10T13:21:41.258Z,39.99
2023-04-10T13:24:16.018Z,39.88
2023-04-10T13:26:49.092Z,39.74
2023-04-10T13:29:21.648Z,40.06
2023-04-10T13:31:54.339Z,40.28
2023-04-10T13:34:26.961Z,40.55
2023-04-10T13:37:00.217Z,40.37
2023-04-10T13:39:32.853Z,40.81
2023-04-10T13:42:05.575Z,40.38
2023-04-10T13:44:38.139Z,40.77
2023-04-10T13:47:10.795Z,41.38
2023-04-10T13:49:43.980Z,41.18
2023-04-10T13:52:16.516Z,40.83
2023-04-10T13:54:49.050Z,41.69
2023-04-10T13:57:21.616Z,42.35
2023-04-10T13:59:54.209Z,42.56
2023-04-10T14:02:27.007Z,43.13
2023-04-10T14:04:59.635Z,43.39
2023-04-10T14:07:33.200Z,44.11
2023-04-10T14:10:07.418Z,44.92
2023-04-10T14:12:40.344Z,45.79
2023-04-10T14:15:12.850Z,46.19
2023-04-10T14:17:45.729Z,46.02
2023-04-10T14:20:18.287Z,46.47
2023-04-10T14:22:53.627Z,46.87
2023-04-10T14:25:26.188Z,48.74
2023-04-10T14:27:59.341Z,48.61
2023-04-10T14:30:32.948Z,49.39
2023-04-10T14:33:05.735Z,49.04
2023-04-10T14:35:38.321Z,50.26
2023-04-10T14:38:11.169Z,51.44
2023-04-10T14:40:45.778Z,51.35
2023-04-10T14:43:19.313Z,52.35
2023-04-10T14:45:51.882Z,54.62
2023-04-10T14:48:24.821Z,54.92
2023-04-10T14:50:58.997Z,56.50
2023-04-10T14:53:31.554Z,56.07
2023-04-10T14:56:15.501Z,54.63
2023-04-10T14:58:48.120Z,54.13
2023-04-10T15:01:20.707Z,55.26
2023-04-10T15:03:53.721Z,54.22
2023-04-10T15:06:28.033Z,54.38
2023-04-10T15:09:01.044Z,53.75
2023-04-10T15:11:33.582Z,52.76
2023-04-10T15:14:07.386Z,52.04
2023-04-10T15:16:41.459Z,52.59
2023-04-10T15:19:14.133Z,52.44
2023-04-10T15:21:47.107Z,51.62
2023-04-10T15:24:19.702Z,52.30
2023-04-10T15:26:53.633Z,52.67
2023-04-10T15:29:26.192Z,53.20
2023-04-10T15:32:01.642Z,53.53
2023-04-10T15:34:34.247Z,53.77
2023-04-10T15:37:07.974Z,52.64
2023-04-10T15:39:43.459Z,52.36
2023-04-10T15:42:16.851Z,51.44
2023-04-10T15:44:52.452Z,51.27
2023-04-10T15:47:25.028Z,51.31
2023-04-10T15:49:59.958Z,52.38
2023-04-10T15:52:33.801Z,52.42
2023-04-10T15:55:09.390Z,51.94
2023-04-10T15:57:42.012Z,52.87
2023-04-10T16:00:15.222Z,54.32
2023-04-10T16:02:47.878Z,53.71
2023-04-10T16:05:20.647Z,53.11
2023-04-10T16:07:55.251Z,53.99
2023-04-10T16:10:27.791Z,53.13
2023-04-10T16:13:04.166Z,54.05
2023-04-10T16:15:38.694Z,54.07
2023-04-10T16:18:11.289Z,53.59
2023-04-10T16:20:44.252Z,54.05
2023-04-10T16:23:16.827Z,53.49
2023-04-10T16:25:49.406Z,54.42
2023-04-10T16:28:22.921Z,54.34
2023-04-10T16:30:56.818Z,55.33
2023-04-10T16:33:30.683Z,58.50
2023-04-10T16:36:04.745Z,60.09
2023-04-10T16:38:37.323Z,62.16
2023-04-10T16:41:10.263Z,62.49
2023-04-10T16:43:42.941Z,65.41
2023-04-10T16:46:15.607Z,68.54
2023-04-10T16:48:48.178Z,71.57
2023-04-10T16:51:20.723Z,73.73
2023-04-10T16:53:53.580Z,75.70
2023-04-10T16:56:26.393Z,76.31
2023-04-10T16:58:59.041Z,77.75
2023-04-10T17:01:31.691Z,78.40
2023-04-10T17:04:04.327Z,79.58
2023-04-10T17:06:36.905Z,80.59
2023-04-10T17:09:09.392Z,81.76
2023-04-10T17:11:42.346Z,82.00
2023-04-10T17:14:15.980Z,83.01
2023-04-10T17:16:48.484Z,83.33
2023-04-10T17:19:21.033Z,83.97
2023-04-10T17:21:54.426Z,83.80
2023-04-10T17:24:27.280Z,84.56
2023-04-10T17:27:00.973Z,85.05
2023-04-10T17:29:40.447Z,85.10
2023-04-10T17:32:13.151Z,86.01
2023-04-10T17:34:46.496Z,87.08
2023-04-10T17:37:19.763Z,87.03
2023-04-10T17:39:54.223Z,87.05
2023-04-10T17:42:27.270Z,87.22
2023-04-10T17:44:59.831Z,87.28
2023-04-10T17:47:32.403Z,87.05
2023-04-10T17:50:05.812Z,87.79
2023-04-10T17:52:38.514Z,87.17
2023-04-10T17:55:11.322Z,87.40
2023-04-10T17:57:43.842Z,87.63
2023-04-10T18:00:20.022Z,88.16
2023-04-10T18:02:58.312Z,88.12
2023-04-10T18:05:31.009Z,87.44
2023-04-10T18:08:03.900Z,86.73
2023-04-10T18:10:36.463Z,87.40
2023-04-10T18:13:09.037Z,87.47
2023-04-10T18:15:41.504Z,86.80
2023-04-10T18:18:14.188Z,86.51
2023-04-10T18:20:46.864Z,85.53
2023-04-10T18:23:19.426Z,85.50
2023-04-10T18:25:55.718Z,86.17
2023-04-10T18:28:28.361Z,85.69
2023-04-10T18:31:01.113Z,85.58
2023-04-10T18:33:34.030Z,85.27
2023-04-10T18:36:07.465Z,85.73
2023-04-10T18:38:42.736Z,85.57
2023-04-10T18:41:15.493Z,85.37
2023-04-10T18:43:57.407Z,85.24
2023-04-10T18:46:34.308Z,86.06
2023-04-10T18:49:07.630Z,85.32
2023-04-10T18:51:40.863Z,85.41
2023-04-10T18:54:13.490Z,85.71
2023-04-10T18:56:46.256Z,84.95
2023-04-10T18:59:18.765Z,86.08
2023-04-10T19:01:51.432Z,85.50
2023-04-10T19:04:24.594Z,85.13
2023-04-10T19:06:57.537Z,84.56
2023-04-10T19:09:30.166Z,84.77
2023-04-10T19:12:03.100Z,84.99
2023-04-10T19:14:42.991Z,84.64
2023-04-10T19:17:15.899Z,84.93
2023-04-10T19:19:51.044Z,84.68
2023-04-10T19:22:29.630Z,84.45
2023-04-10T19:25:02.432Z,84.87
2023-04-10T19:27:35.227Z,84.81
2023-04-10T19:30:08.780Z,84.67
2023-04-10T19:32:44.619Z,85.34
2023-04-10T19:35:17.260Z,84.78
2023-04-10T19:37:51.886Z,84.14
2023-04-10T19:40:24.527Z,84.60
2023-04-10T19:43:01.184Z,84.50
2023-04-10T19:45:44.712Z,84.31
2023-04-10T19:48:31.433Z,83.98
2023-04-10T19:51:13.938Z,83.76
2023-04-10T19:53:46.817Z,83.14
2023-04-10T19:56:23.319Z,83.42
2023-04-10T19:58:56.471Z,82.83
2023-04-10T20:01:31.957Z,83.21
2023-04-10T20:04:25.261Z,83.19
2023-04-10T20:07:09.480Z,82.89
2023-04-10T20:09:53.309Z,83.18
2023-04-10T20:12:30.147Z,83.13
2023-04-10T20:15:10.029Z,83.21
2023-04-10T20:17:44.244Z,82.97
2023-04-10T20:20:24.500Z,83.17
2023-04-10T20:22:59.904Z,83.64
2023-04-10T20:25:35.064Z,83.29
2023-04-10T20:28:11.168Z,83.04
2023-04-10T20:30:47.345Z,83.56
2023-04-10T20:33:20.037Z,84.04
2023-04-10T20:35:55.767Z,83.75
2023-04-10T20:38:31.453Z,84.00
2023-04-10T20:41:06.394Z,83.71
2023-04-10T20:43:39.057Z,83.92
2023-04-10T20:46:11.709Z,84.40
2023-04-10T20:48:47.266Z,84.41
2023-04-10T20:51:19.844Z,84.72
2023-04-10T20:53:52.616Z,84.74
2023-04-10T20:56:33.087Z,84.80
2023-04-10T20:59:15.453Z,85.16
2023-04-10T21:01:48.332Z,85.13
2023-04-10T21:04:21.132Z,85.21
2023-04-10T21:06:53.826Z,85.15
2023-04-10T21:09:42.310Z,85.21
2023-04-10T21:12:32.664Z,85.31
2023-04-10T21:15:13.399Z,85.48
2023-04-10T21:17:47.557Z,85.48
2023-04-10T21:20:22.152Z,85.90
2023-04-10T21:22:54.666Z,85.62
2023-04-10T21:25:28.084Z,84.81
2023-04-10T21:28:01.790Z,84.94
2023-04-10T21:30:34.346Z,86.07
2023-04-10T21:33:06.926Z,85.81
2023-04-10T21:35:43.651Z,85.33
2023-04-10T21:38:16.249Z,84.75
2023-04-10T21:40:55.594Z,85.20
2023-04-10T21:43:28.086Z,85.54
2023-04-10T21:46:02.807Z,85.45
2023-04-10T21:48:35.689Z,85.15
2023-04-10T21:51:12.458Z,84.74
2023-04-10T21:53:45.131Z,85.04
2023-04-10T21:56:18.907Z,85.05
2023-04-10T21:58:52.945Z,84.97
2023-04-10T22:01:26.217Z,85.11
2023-04-10T22:04:01.331Z,84.76
2023-04-10T22:06:34.018Z,84.79
2023-04-10T22:09:09.356Z,84.10
2023-04-10T22:11:42.009Z,84.52
2023-04-10T22:14:20.051Z,84.21
2023-04-10T22:16:54.115Z,83.13
2023-04-10T22:19:29.419Z,83.20
2023-04-10T22:22:03.262Z,82.59
2023-04-10T22:24:38.515Z,82.80
2023-04-10T22:27:11.192Z,82.69
2023-04-10T22:29:47.686Z,81.82
2023-04-10T22:32:25.760Z,81.43
2023-04-10T22:34:59.885Z,80.79
2023-04-10T22:37:33.132Z,80.94
2023-04-10T22:40:06.754Z,80.75
2023-04-10T22:42:39.319Z,79.72
2023-04-10T22:45:12.918Z,79.83
2023-04-10T22:47:45.553Z,79.26
2023-04-10T22:50:18.412Z,79.85
2023-04-10T22:52:51.204Z,78.95
2023-04-10T22:55:23.952Z,79.56
2023-04-10T22:57:56.537Z,79.53
2023-04-10T23:00:34.221Z,79.68
2023-04-10T23:03:06.933Z,79.32
2023-04-10T23:05:42.587Z,79.73
2023-04-10T23:08:15.368Z,79.94
2023-04-10T23:10:47.854Z,79.78
2023-04-10T23:13:20.563Z,80.50
2023-04-10T23:15:55.136Z,80.37
2023-04-10T23:18:27.710Z,80.08
2023-04-10T23:21:06.599Z,79.87
2023-04-10T23:23:39.107Z,80.23
2023-04-10T23:26:11.686Z,79.84
2023-04-10T23:28:44.211Z,79.43
2023-04-10T23:31:17.301Z,78.64
2023-04-10T23:33:49.857Z,79.47
2023-04-10T23:36:22.328Z,78.96
2023-04-10T23:38:55.586Z,79.04
2023-04-10T23:41:28.216Z,79.14
2023-04-10T23:44:00.790Z,79.31
2023-04-10T23:46:33.398Z,78.52
2023-04-10T23:49:05.938Z,78.57
2023-04-10T23:51:38.510Z,78.28
2023-04-10T23:54:14.126Z,78.28
2023-04-10T23:56:46.638Z,78.30
2023-04-10T23:59:19.221Z,77.99
